Latest Weather Observations for Cooma Airport

IDN60901

Issued at 7:31 am EST Thursday 20 June 2019 (issued every 10 minutes, with the page automatically refreshed every 10 minutes)

About weather observations | Map of Canberra area stations | Latest observations for Canberra area | Other Formats
Station Details ID: 070217 Name: COOMA AIRPORT AWS Lat: -36.29 Lon: 148.97 Height: 930.0 m
Data from the previous 72 hours. | See also: Recent months at Cooma Airport
Date/Time
EST
Temp
°C
App
Temp
°C
Dew
Point
°C
Rel
Hum
%
Delta-T
°C
Wind Press
QNH
hPa
Press
MSL
hPa
Rain since
9am
mm
Dir  Spd
km/h
Gust
km/h
Spd
kts
Gust
kts
20/07:30am -8.2 -11.2 -8.7 96 -0.1 CALM 0 0 0 0 1023.9 1025.3 0.0
20/07:00am -8.7 -11.7 -9.9 91 0.0 CALM 0 0 0 0 1023.9 1025.3 0.0
20/06:30am -8.0 -10.9 -8.5 96 -0.1 CALM 0 0 0 0 1023.7 1025.1 0.0
20/06:00am -7.9 -10.9 -8.7 94 -0.1 CALM 0 0 0 0 1023.6 1025.0 0.0
20/05:30am -7.8 -10.8 -8.7 93 0.0 CALM 0 0 0 0 1023.3 1024.8 0.0
20/05:00am -6.8 -9.7 -7.5 95 0.0 CALM 0 0 0 0 1023.1 1024.5 0.0
20/04:30am -6.4 -9.3 -7.5 92 0.1 CALM 0 0 0 0 1023.3 1024.8 0.0
20/04:00am -5.1 -7.8 -6.2 92 0.1 CALM 0 0 0 0 1023.6 1025.0 0.0
20/03:30am -3.4 -6.0 -4.7 91 0.3 CALM 0 7 0 4 1023.8 1025.2 0.0
20/03:00am -1.3 -4.0 -2.3 93 0.3 SW 2 11 1 6 1023.6 1025.0 0.0
20/02:30am -1.6 -3.8 -1.7 99 0.0 CALM 0 0 0 0 1023.7 1025.1 0.0
20/02:00am -2.2 -5.6 -2.3 99 -0.1 NNE 6 11 3 6 1023.7 1025.1 0.0
20/01:30am -2.7 -5.4 -2.8 99 -0.1 ENE 2 7 1 4 1023.7 1025.1 0.0
20/01:00am -2.9 -5.3 -3.0 99 -0.1 CALM 0 0 0 0 1023.7 1025.1 0.0
20/12:30am -5.1 -8.1 -5.2 99 -0.2 SSE 2 9 1 5 1023.8 1025.2 0.0
20/12:00am -6.6 -9.4 -7.3 95 0.0 CALM 0 6 0 3 1023.9 1025.3 0.0
 
Date/Time
EST
Temp
°C
App
Temp
°C
Dew
Point
°C
Rel
Hum
%
Delta-T
°C
Wind Press
QNH
hPa
Press
MSL
hPa
Rain since
9am
mm
Dir  Spd
km/h
Gust
km/h
Spd
kts
Gust
kts
19/11:30pm -6.5 -9.4 -7.6 92 0.1 CALM 0 0 0 0 1023.8 1025.2 0.0
19/11:00pm -4.8 -7.4 -5.2 97 -0.1 CALM 0 0 0 0 1023.9 1025.3 0.0
19/10:30pm -4.6 -7.2 -4.9 98 -0.1 CALM 0 0 0 0 1024.1 1025.5 0.0
19/10:00pm -4.9 -8.7 -5.7 94 0.1 NE 6 9 3 5 1024.1 1025.5 0.0
19/09:30pm -3.5 -6.0 -3.9 97 0.0 CALM 0 0 0 0 1023.8 1025.2 0.0
19/09:00pm -4.4 -8.1 -4.9 96 0.0 SSE 6 9 3 5 1024.0 1025.4 0.0
19/08:30pm -4.0 -7.4 -5.0 93 0.2 WSW 4 7 2 4 1024.1 1025.5 0.0
19/08:00pm -3.3 -7.6 -4.7 90 0.3 SW 9 11 5 6 1023.8 1025.2 0.0
19/07:30pm -0.6 -5.2 -1.4 94 0.3 WSW 13 13 7 7 1023.8 1025.2 0.0
19/07:00pm -2.0 -6.4 -2.6 96 0.1 SW 11 13 6 7 1023.6 1025.0 0.0
19/06:30pm -1.8 -6.7 -3.1 91 0.4 SW 13 15 7 8 1023.1 1024.5 0.0
19/06:00pm -0.7 -5.5 -2.4 88 0.6 SW 13 15 7 8 1022.9 1024.3 0.0
19/05:30pm 0.4 -5.4 -1.7 86 0.8 S 19 20 10 11 1022.5 1023.9 0.0
19/05:00pm 1.6 -3.5 -1.8 78 1.3 S 15 20 8 11 1022.1 1023.5 0.0
19/04:30pm 4.0 -2.0 -1.4 68 2.1 S 20 24 11 13 1021.9 1023.3 0.0
19/04:00pm 5.3 -1.5 -1.6 61 2.7 S 24 28 13 15 1021.8 1023.2 0.0
19/03:30pm 5.8 -0.9 -1.1 61 2.7 SSW 24 33 13 18 1021.6 1023.0 0.0
19/03:00pm 6.4 -0.2 -0.6 61 2.8 SSW 24 32 13 17 1021.5 1022.9 0.0
19/02:30pm 6.0 -1.1 -1.4 59 2.9 SSW 26 35 14 19 1021.1 1022.5 0.0
19/02:00pm 6.4 -0.6 -0.8 60 2.9 SSW 26 35 14 19 1021.3 1022.6 0.0
19/01:30pm 6.4 -0.3 -0.8 60 2.9 SSW 24 35 13 19 1021.3 1022.6 0.0
19/01:00pm 5.8 -1.3 -1.6 59 2.9 SSW 26 33 14 18 1021.4 1022.7 0.0
19/12:30pm 6.0 -0.7 -1.4 59 2.9 SW 24 32 13 17 1021.6 1023.0 0.0
19/12:00pm 5.8 -0.5 -1.3 60 2.8 SSW 22 32 12 17 1022.0 1023.4 0.0
19/11:30am 5.3 -1.1 -1.8 60 2.8 SSW 22 28 12 15 1022.2 1023.6 0.0
19/11:00am 5.1 -1.3 -1.8 61 2.7 SSW 22 30 12 16 1022.3 1023.8 0.0
19/10:30am 4.7 -1.3 -1.7 63 2.5 SW 20 28 11 15 1022.3 1023.8 0.0
19/10:00am 4.3 -0.7 -1.5 66 2.2 SW 15 22 8 12 1022.5 1023.9 0.0
19/09:30am 3.1 -1.5 -1.1 74 1.6 SW 13 17 7 9 1022.1 1023.5 0.0
19/09:00am 2.1 -1.9 0.6 90 0.6 WSW 11 15 6 8 1021.7 1023.1 0.0
19/08:30am -1.2 -3.4 -1.3 99 0.0 CALM 0 0 0 0 1021.7 1023.1 0.0
19/08:18am -1.6 -3.8 -1.7 99 0.0 CALM 0 0 0 0 1021.7 1023.1 0.0
19/08:00am -3.6 -6.1 -3.7 99 -0.1 CALM 0 0 0 0 1021.6 1023.0 0.0
19/07:30am -5.2 -7.8 -5.3 99 -0.2 CALM 0 0 0 0 1021.1 1022.5 0.0
19/07:15am -4.9 -7.5 -5.0 99 -0.2 CALM 0 0 0 0 1020.9 1022.3 0.0
19/07:00am -5.0 -7.6 -5.1 99 -0.2 CALM 0 0 0 0 1020.8 1022.2 0.0
19/06:30am -5.1 -9.1 -5.2 99 -0.2 S 7 9 4 5 1020.5 1021.9 0.0
19/06:00am -4.6 -7.2 -4.9 98 -0.1 CALM 0 0 0 0 1020.2 1021.5 0.0
19/05:46am -4.6 -7.2 -4.9 98 -0.1 CALM 0 0 0 0 1019.9 1021.3 0.0
19/05:30am -3.8 -6.3 -3.9 99 -0.1 CALM 0 6 0 3 1019.8 1021.2 0.0
19/05:24am -3.5 -6.7 -3.6 99 -0.1 SSW 4 6 2 3 1019.7 1021.1 0.0
19/05:00am -3.3 -6.9 -3.8 96 0.0 SW 6 6 3 3 1019.8 1021.2 0.0
19/04:30am -2.0 -6.4 -2.1 99 -0.1 SW 11 13 6 7 1019.5 1020.8 0.0
19/04:00am -1.8 -5.5 -3.1 91 0.4 SW 7 9 4 5 1019.4 1020.7 0.0
19/03:30am 1.1 -2.6 0.1 93 0.4 SW 9 11 5 6 1019.5 1020.8 0.0
19/03:00am 1.8 -2.1 1.2 96 0.2 SSW 11 15 6 8 1019.5 1020.8 0.0
19/02:54am 1.6 -2.0 0.9 95 0.3 SSW 9 11 5 6 1019.5 1020.8 0.0
19/02:30am 2.1 -1.0 1.2 94 0.4 SW 7 9 4 5 1019.6 1021.0 0.0
19/02:00am 2.0 -1.2 1.0 93 0.4 S 7 13 4 7 1019.4 1020.7 0.0
19/01:43am 2.2 -1.7 1.2 93 0.4 SSW 11 13 6 7 1019.3 1020.6 0.0
19/01:35am 2.3 -2.0 1.3 93 0.4 SSW 13 17 7 9 1019.1 1020.4 0.0
19/01:30am 2.3 -2.0 1.3 93 0.4 SSW 13 17 7 9 1019.1 1020.4 0.0
19/01:18am 2.4 -1.4 1.7 95 0.3 S 11 15 6 8 1019.1 1020.4 0.0
19/01:00am 2.4 -2.1 2.1 98 0.1 S 15 17 8 9 1019.0 1020.3 0.0
19/12:30am 2.4 -3.8 2.3 99 0.0 SSW 24 30 13 16 1019.0 1020.3 0.0
19/12:00am 1.6 -3.0 1.3 98 0.1 WSW 15 19 8 10 1018.6 1019.9 0.0
 
Date/Time
EST
Temp
°C
App
Temp
°C
Dew
Point
°C
Rel
Hum
%
Delta-T
°C
Wind Press
QNH
hPa
Press
MSL
hPa
Rain since
9am
mm
Dir  Spd
km/h
Gust
km/h
Spd
kts
Gust
kts
18/11:30pm 0.3 -3.8 -0.3 96 0.2 WSW 11 15 6 8 1018.5 1019.8 0.0
18/11:00pm 2.3 -1.4 0.2 86 0.8 WNW 9 11 5 6 1018.2 1019.5 0.0
18/10:30pm 2.7 -2.3 1.1 89 0.7 WSW 17 22 9 12 1018.5 1019.8 0.0
18/10:00pm 4.3 -1.0 2.0 85 1.0 W 19 24 10 13 1018.5 1019.8 0.0
18/09:30pm 3.6 -0.7 1.2 84 1.0 WSW 13 19 7 10 1018.3 1019.6 0.0
18/09:00pm 4.4 0.9 1.3 80 1.3 WNW 9 13 5 7 1018.1 1019.4 0.0
18/08:30pm 4.7 1.1 0.7 75 1.6 NW 9 15 5 8 1018.0 1019.3 0.0
18/08:00pm 5.4 1.8 0.8 72 1.9 NNW 9 13 5 7 1017.9 1019.2 0.0
18/07:30pm 6.3 3.1 0.6 67 2.4 WNW 7 17 4 9 1017.9 1019.2 0.0
18/07:00pm 5.6 2.5 1.2 73 1.8 N 7 11 4 6 1017.9 1019.2 0.0
18/06:30pm 6.4 3.3 1.1 69 2.2 NW 7 11 4 6 1017.8 1019.1 0.0
18/06:00pm 5.5 2.4 -0.1 67 2.3 N 6 7 3 4 1017.8 1019.1 0.0
18/05:30pm 6.1 3.7 -0.2 64 2.6 WNW 2 11 1 6 1017.5 1018.8 0.0
18/05:00pm 6.3 1.8 -0.4 62 2.7 WNW 13 22 7 12 1017.3 1018.6 0.0
18/04:30pm 7.3 1.6 -0.6 57 3.2 WNW 19 28 10 15 1017.2 1018.5 0.0
18/04:00pm 8.5 1.9 -0.5 53 3.7 WNW 24 35 13 19 1017.2 1018.5 0.0
18/03:30pm 9.0 1.2 -1.1 49 4.2 WNW 30 41 16 22 1017.2 1018.5 0.0
18/03:00pm 8.8 1.2 -1.9 47 4.3 WNW 28 41 15 22 1016.9 1018.2 0.0
18/02:30pm 9.5 2.7 -1.5 46 4.5 WNW 24 35 13 19 1016.9 1018.2 0.0
18/02:00pm 9.7 3.6 -2.6 42 4.9 WNW 20 35 11 19 1016.9 1018.2 0.0
18/01:30pm 9.7 4.2 -1.9 44 4.7 WNW 17 24 9 13 1017.0 1018.3 0.0
18/01:00pm 10.1 3.6 -2.2 42 5.0 WNW 22 33 12 18 1017.2 1018.5 0.0
18/12:30pm 9.9 4.1 -1.2 46 4.6 NW 19 30 10 16 1017.6 1018.9 0.0
18/12:00pm 9.3 3.9 1.2 57 3.5 NNW 19 28 10 15 1018.2 1019.5 0.0
18/11:30am 9.2 4.1 0.6 55 3.7 NW 17 28 9 15 1018.4 1019.7 0.0
18/11:00am 9.2 3.3 1.4 58 3.4 NNW 22 35 12 19 1018.7 1020.1 0.0
18/10:30am 7.9 3.7 3.8 75 1.9 N 15 20 8 11 1019.3 1020.6 0.0
18/10:00am 7.8 3.2 5.8 87 1.0 NE 19 22 10 12 1019.4 1020.7 0.0
18/09:30am 4.3 1.3 4.3 100 0.0 NE 9 11 5 6 1019.6 1021.0 0.0
18/09:00am 4.0 0.6 4.0 100 0.0 NNE 11 15 6 8 1019.7 1021.1 0.0
18/08:30am 3.7 -0.2 3.6 99 0.0 N 13 15 7 8 1019.6 1021.0 0.0
18/08:00am 3.1 -0.9 3.0 99 0.0 NE 13 17 7 9 1019.3 1020.6 0.0
18/07:30am 1.9 -1.9 1.8 99 0.0 NNE 11 13 6 7 1019.5 1020.8 0.0
18/07:00am 1.4 -2.5 1.4 100 0.0 NNE 11 15 6 8 1019.2 1020.5 0.0
18/06:30am 0.4 -3.2 0.3 99 0.0 NNE 9 11 5 6 1019.2 1020.5 0.0
18/06:00am 0.9 -2.7 0.9 100 0.0 NNE 9 13 5 7 1019.1 1020.4 0.0
18/05:47am 0.9 -2.7 0.9 100 0.0 NE 9 13 5 7 1019.1 1020.4 0.0
18/05:30am 0.2 -3.9 0.1 99 0.0 NE 11 17 6 9 1019.2 1020.5 0.0
18/05:28am 0.0 -4.1 -0.1 99 0.0 NNE 11 15 6 8 1019.2 1020.5 0.0
18/05:11am 1.3 -2.6 1.3 100 0.0 NNE 11 13 6 7 1019.3 1020.6 0.0
18/05:00am 1.0 -2.6 0.9 99 0.0 NNE 9 11 5 6 1019.3 1020.6 0.0
18/04:49am 0.7 -2.3 0.6 99 0.0 NNE 6 9 3 5 1019.2 1020.5 0.0
18/04:30am 0.4 -2.9 0.3 99 0.0 NNE 7 9 4 5 1019.2 1020.5 0.0
18/04:00am 2.2 -1.2 2.1 99 0.0 N 9 11 5 6 1019.4 1020.7 0.0
18/03:30am 1.3 -1.6 1.2 99 0.0 NNE 6 7 3 4 1019.5 1020.8 0.0
18/03:00am 2.2 -1.2 2.1 99 0.0 NE 9 11 5 6 1019.7 1021.1 0.0
18/02:30am 4.2 1.2 4.1 99 0.0 NNE 9 13 5 7 1020.0 1021.4 0.0
18/02:00am 3.9 0.5 3.9 100 0.0 NE 11 13 6 7 1020.4 1021.7 0.0
18/01:30am 2.9 0.2 2.9 100 0.0 NE 6 7 3 4 1020.5 1021.9 0.0
18/01:00am 2.2 -1.9 2.1 99 0.0 NE 13 15 7 8 1020.6 1022.0 0.0
18/12:30am 2.8 -0.8 2.7 99 0.0 NE 11 13 6 7 1021.0 1022.4 0.0
18/12:00am 4.3 0.9 4.2 99 0.0 NE 11 13 6 7 1021.5 1022.9 0.0
 
Date/Time
EST
Temp
°C
App
Temp
°C
Dew
Point
°C
Rel
Hum
%
Delta-T
°C
Wind Press
QNH
hPa
Press
MSL
hPa
Rain since
9am
mm
Dir  Spd
km/h
Gust
km/h
Spd
kts
Gust
kts
17/11:30pm 4.6 1.7 4.5 99 0.0 NE 9 11 5 6 1021.8 1023.2 0.0
17/11:00pm 4.2 1.2 4.1 99 0.0 NE 9 9 5 5 1022.0 1023.4 0.0
17/10:30pm 4.0 1.0 4.0 100 0.0 NE 9 11 5 6 1022.1 1023.5 0.0
17/10:00pm 3.8 0.7 3.8 100 0.0 N 9 11 5 6 1022.2 1023.6 0.0
17/09:30pm 1.2 -2.7 1.1 99 0.0 NE 11 13 6 7 1022.2 1023.6 0.0
17/09:00pm 1.5 -1.4 1.4 99 0.0 NNE 6 7 3 4 1022.3 1023.8 0.0
17/08:30pm 2.4 -0.4 2.3 99 0.0 NNE 6 7 3 4 1022.1 1023.5 0.0
17/08:00pm 1.4 -2.2 0.4 93 0.4 NE 9 9 5 5 1022.1 1023.5 0.0
17/07:30pm 3.1 -0.3 1.9 92 0.5 NNE 9 11 5 6 1022.0 1023.4 0.0
17/07:00pm 2.7 -0.6 2.4 98 0.1 NE 9 11 5 6 1021.8 1023.2 0.0
17/06:30pm 2.9 1.2 1.9 93 0.4 CALM 0 7 0 4 1021.6 1023.0 0.0
17/06:00pm 3.2 1.3 0.3 81 1.2 CALM 0 0 0 0 1021.4 1022.7 0.0
17/05:30pm 4.5 1.2 2.4 86 0.9 NE 9 13 5 7 1021.1 1022.5 0.0
17/05:00pm 5.9 1.7 1.8 75 1.7 NNE 13 15 7 8 1021.1 1022.5 0.0
17/04:30pm 9.0 5.0 3.0 66 2.7 NE 13 19 7 10 1020.9 1022.3 0.0
17/04:00pm 10.0 6.3 2.6 60 3.3 NNE 11 13 6 7 1021.1 1022.5 0.0
17/03:30pm 10.1 6.4 2.5 59 3.4 NNE 11 15 6 8 1021.3 1022.6 0.0
17/03:00pm 10.2 6.5 2.3 58 3.5 NNE 11 15 6 8 1021.3 1022.6 0.0
17/02:30pm 10.2 7.4 1.8 56 3.7 ENE 6 9 3 5 1021.4 1022.7 0.0
17/02:00pm 9.8 7.0 2.2 59 3.4 S 6 9 3 5 1021.7 1023.1 0.0
17/01:30pm 9.3 6.4 1.5 58 3.4 SW 6 13 3 7 1021.7 1023.1 0.0
17/01:00pm 9.3 6.4 1.7 59 3.3 SW 6 11 3 6 1022.0 1023.4 0.0
17/12:30pm 8.6 5.7 1.3 60 3.2 SSW 6 9 3 5 1022.1 1023.5 0.0
17/12:00pm 8.3 5.4 1.7 63 2.9 SSE 6 11 3 6 1022.6 1024.0 0.0
17/11:30am 7.4 4.1 2.3 70 2.2 SW 9 11 5 6 1022.9 1024.3 0.0
17/11:00am 6.9 2.7 1.6 69 2.3 S 13 17 7 9 1023.6 1025.0 0.0
17/10:30am 5.8 1.2 1.5 74 1.8 SSW 15 19 8 10 1023.7 1025.1 0.0
17/10:00am 4.6 0.8 1.8 82 1.2 SSW 11 15 6 8 1023.8 1025.2 0.0
17/09:30am 2.6 -0.1 2.5 99 0.0 SSW 6 7 3 4 1023.7 1025.1 0.0
17/09:00am 0.4 -1.5 0.3 99 0.0 CALM 0 0 0 0 1023.8 1025.2 0.0
17/08:30am -0.8 -3.7 -0.9 99 0.0 SSW 4 7 2 4 1023.6 1025.0 0.0
17/08:00am -2.3 -5.0 -2.4 99 -0.1 W 2 6 1 3 1023.4 1024.9 0.0

Latest Capital City Observations: Canberra | Sydney | Melbourne | Brisbane | Adelaide | Perth | Hobart | Darwin

Other formats

Comma delimited format used in spreadsheet applications
http://www.bom.gov.au/fwo/IDN60903/IDN60903.94921.axf

JavaScript Object Notation format (JSON) in row-major order
http://www.bom.gov.au/fwo/IDN60903/IDN60903.94921.json

Data quality

Most of these data are generated automatically and are frequently updated. Quality checks on data are not normally performed. It is possible for incorrect values to appear. Refer to information at About Latest Weather Observations and please check the disclaimer before using these data.